Latest Weather Observations for Cloncurry

IDQ60801

Issued at 7:33 pm EST Monday 25 July 2016 (issued every 30 minutes, with the page automatically refreshed every 10 minutes)

About weather observations | Map of weather stations | Latest weather observations for QLD | Other Formats
Station Details ID: 029141 Name: CLONCURRY AIRPORT Lat: -20.67 Lon: 140.50 Height: 186.0 m
Data from the previous 72 hours. | See also: Recent months at Cloncurry
Date/Time
EST
Temp
°C
App
Temp
°C
Dew
Point
°C
Rel
Hum
%
Delta-T
°C
Wind Press
QNH
hPa
Press
MSL
hPa
Rain since
9am
mm
Dir  Spd
km/h
Gust
km/h
Spd
kts
Gust
kts
25/07:30pm 20.2 15.3 3.9 34 7.8 - 19 20 10 11 1018.4 - -
25/07:00pm 20.6 15.9 5.0 36 7.7 - 19 20 10 11 1017.9 1017.5 -
25/06:30pm 21.6 - 4.7 33 8.4 - - - - - 1017.7 - -
25/06:00pm 22.5 - 4.5 31 8.9 - - - - - 1017.4 1017.0 -
25/05:30pm 23.5 - 4.9 30 9.4 - - - - - 1017.3 - -
25/05:00pm 23.7 - 4.1 28 9.7 - - - - - 1017.2 1016.8 -
25/04:30pm 24.1 - 5.0 29 9.7 - - - - - 1016.9 - -
25/04:00pm 24.1 - 4.0 27 10.0 - - - - - 1016.9 1016.5 -
25/03:30pm 24.4 - 4.7 28 9.9 - - - - - 1016.9 - -
25/03:00pm 23.9 - 3.8 27 9.9 - - - - - 1017.2 1016.8 0.0
25/02:30pm 23.7 - 4.1 28 9.7 - - - - - 1017.5 - -
25/02:00pm 23.4 - 3.9 28 9.6 - - - - - 1017.9 1017.5 -
25/01:30pm 22.9 - 3.4 28 9.5 - - - - - 1018.3 - -
25/01:00pm 22.6 - 3.7 29 9.2 - - - - - 1018.8 1018.4 -
25/12:30pm 22.7 - 4.2 30 9.1 - - - - - 1019.5 - -
25/12:00pm 21.3 - 3.5 31 8.6 - - - - - 1020.0 1019.6 -
25/11:30am 21.1 - 3.8 32 8.4 - - - - - 1020.4 - -
25/11:00am 20.9 - 4.0 33 8.2 - - - - - 1020.8 1020.4 -
25/10:30am 19.8 - 3.1 33 7.9 - - - - - 1021.0 - -
25/10:00am 19.7 - 3.4 34 7.7 - - - - - 1021.0 1020.6 -
25/09:30am 19.2 - 3.0 34 7.6 - - - - - 1020.9 - -
25/09:00am 18.4 - 2.7 35 7.3 - - - - - 1020.6 1020.2 0.0
25/08:30am 16.8 - 5.4 47 5.5 - - - - - 1020.3 - -
25/08:00am 15.0 - 6.3 56 4.2 - - - - - 1020.1 1019.7 -
25/07:30am 13.5 - 6.4 62 3.4 - - - - - 1019.9 - -
25/07:00am 14.0 - 6.1 59 3.8 - - - - - 1019.6 1019.1 -
25/06:30am 13.9 - 5.8 58 3.9 - - - - - 1019.2 - -
25/06:00am 14.9 - 5.4 53 4.5 - - - - - 1018.8 1018.4 -
25/05:30am 15.4 - 5.3 51 4.8 - - - - - 1018.2 - -
25/05:00am 15.0 - 6.3 56 4.2 - - - - - 1018.2 1017.8 -
25/04:30am 15.0 - 6.8 58 4.0 - - - - - 1018.0 - -
25/04:00am 15.4 - 6.9 57 4.2 - - - - - 1018.0 1017.6 -
25/03:30am 15.4 - 6.9 57 4.2 - - - - - 1017.9 - -
25/03:00am 15.3 - 7.6 60 3.9 - - - - - 1017.9 1017.5 0.0
25/02:30am 15.7 - 8.4 62 3.7 - - - - - 1018.1 - -
25/02:00am 16.0 - 8.5 61 3.8 - - - - - 1018.4 1018.0 -
25/01:30am 16.9 - 8.6 58 4.3 - - - - - 1018.6 - -
25/01:00am 16.6 - 8.8 60 4.0 - - - - - 1018.7 1018.3 -
25/12:30am 16.5 - 8.7 60 4.0 - - - - - 1018.7 - -
25/12:00am 17.6 - 9.0 57 4.5 - - - - - 1018.8 1018.4 -
 
Date/Time
EST
Temp
°C
App
Temp
°C
Dew
Point
°C
Rel
Hum
%
Delta-T
°C
Wind Press
QNH
hPa
Press
MSL
hPa
Rain since
9am
mm
Dir  Spd
km/h
Gust
km/h
Spd
kts
Gust
kts
24/11:30pm 17.4 - 9.1 58 4.4 - - - - - 1018.6 - -
24/11:00pm 18.3 - 9.1 55 4.8 - - - - - 1018.7 1018.3 -
24/10:30pm 18.6 - 9.1 54 5.0 - - - - - 1018.5 - -
24/10:00pm 19.5 - 9.4 52 5.4 - - - - - 1018.3 1017.9 -
24/09:30pm 20.6 - 9.8 50 5.8 - - - - - 1017.9 - -
24/09:00pm 21.8 - 9.0 44 6.9 - - - - - 1017.7 1017.3 0.0
24/08:30pm 21.2 - 10.1 49 6.1 - - - - - 1017.2 - -
24/08:00pm 22.8 - 9.6 43 7.2 - - - - - 1016.5 1016.1 -
24/07:30pm 23.5 - 9.9 42 7.5 - - - - - 1015.9 - -
24/07:00pm 24.2 - 9.0 38 8.3 - - - - - 1015.5 1015.1 -
24/06:30pm 24.7 - 9.0 37 8.6 - - - - - 1015.2 - -
24/06:00pm 26.8 - 7.8 30 10.3 - - - - - 1015.1 1014.6 -
24/05:30pm 27.8 - 7.1 27 11.1 - - - - - 1014.8 - -
24/05:00pm 28.3 - 7.0 26 11.4 - - - - - 1014.4 1013.9 -
24/04:30pm 28.6 - 7.8 27 11.3 - - - - - 1014.3 - -
24/04:00pm 28.6 - 7.2 26 11.6 - - - - - 1014.3 1013.8 -
24/03:30pm 28.4 - 7.6 27 11.3 - - - - - 1014.4 - -
24/03:00pm 28.2 - 8.0 28 11.0 - - - - - 1014.6 1014.1 0.0
24/02:30pm 27.8 - 7.6 28 10.9 - - - - - 1015.1 - -
24/02:00pm 27.5 - 7.9 29 10.6 - - - - - 1015.7 1015.3 -
24/01:30pm 27.3 - 7.7 29 10.6 - - - - - 1016.0 - -
24/01:00pm 26.8 - 7.8 30 10.3 - - - - - 1016.6 1016.2 -
24/12:30pm 26.6 - 8.6 32 9.9 - - - - - 1017.2 - -
24/12:00pm 25.5 - 6.7 30 9.9 - - - - - 1017.4 1017.0 -
24/11:30am 24.7 - 6.0 30 9.7 - - - - - 1017.9 - -
24/11:00am 24.3 - 6.6 32 9.2 - - - - - 1018.4 1018.0 -
24/10:30am 22.6 - 6.8 36 8.2 - - - - - 1018.6 - -
24/10:00am 20.9 - 6.8 40 7.2 - - - - - 1018.6 1018.2 -
24/09:30am 19.8 - 7.9 46 6.2 - - - - - 1018.5 - -
24/09:00am 18.0 - 8.8 55 4.8 - - - - - 1018.1 1017.7 0.0
24/08:30am 16.1 - 9.1 63 3.6 - - - - - 1018.0 - -
24/08:00am 14.2 - 9.4 73 2.5 - - - - - 1018.1 1017.7 -
24/07:30am 12.6 - 9.6 82 1.5 - - - - - 1017.6 - -
24/07:00am 12.5 - 9.3 81 1.6 - - - - - 1017.4 1017.0 -
24/06:30am 12.5 - 8.6 77 2.0 - - - - - 1017.1 - -
24/06:00am 13.0 - 9.6 80 1.7 - - - - - 1016.7 1016.3 -
24/05:30am 13.6 - 9.3 75 2.2 - - - - - 1016.5 - -
24/05:00am 13.2 - 9.5 78 1.9 - - - - - 1016.1 1015.7 -
24/04:30am 14.8 - 9.4 70 2.8 - - - - - 1015.9 - -
24/04:00am 14.3 - 8.9 70 2.8 - - - - - 1015.8 1015.4 -
24/03:30am 15.1 - 9.5 69 2.9 - - - - - 1015.5 - -
24/03:00am 15.3 - 9.2 67 3.2 - - - - - 1015.5 1015.1 0.0
24/02:30am 15.8 - 9.0 64 3.5 - - - - - 1015.5 - -
24/02:00am 15.7 - 9.1 65 3.4 - - - - - 1015.6 1015.2 -
24/01:30am 16.5 - 9.0 61 3.9 - - - - - 1015.7 - -
24/01:00am 16.9 - 8.8 59 4.2 - - - - - 1015.6 1015.2 -
24/12:30am 18.1 - 8.4 53 5.0 - - - - - 1015.5 - -
24/12:00am 18.5 - 7.9 50 5.5 - - - - - 1015.4 1015.0 -
 
Date/Time
EST
Temp
°C
App
Temp
°C
Dew
Point
°C
Rel
Hum
%
Delta-T
°C
Wind Press
QNH
hPa
Press
MSL
hPa
Rain since
9am
mm
Dir  Spd
km/h
Gust
km/h
Spd
kts
Gust
kts
23/11:30pm 18.8 - 8.2 50 5.5 - - - - - 1015.8 - -
23/11:00pm 19.5 - 7.9 47 6.0 - - - - - 1015.8 1015.4 -
23/10:30pm 20.1 - 8.1 46 6.3 - - - - - 1015.9 - -
23/10:00pm 20.5 - 8.5 46 6.3 - - - - - 1015.9 1015.5 -
23/09:30pm 21.1 - 8.4 44 6.7 - - - - - 1015.9 - -
23/09:00pm 21.5 - 9.1 45 6.7 - - - - - 1015.6 1015.2 0.0
23/08:30pm 22.4 - 9.2 43 7.1 - - - - - 1015.3 - -
23/08:00pm 23.0 - 9.8 43 7.2 - - - - - 1015.0 1014.5 -
23/07:30pm 23.9 - 9.9 41 7.7 - - - - - 1014.6 - -
23/07:00pm 25.1 - 12.0 44 7.5 - - - - - 1014.2 1013.7 -
23/06:30pm 25.3 - 11.8 43 7.8 - - - - - 1013.8 - -
23/06:00pm 27.9 - 9.2 31 10.4 - - - - - 1013.3 1012.9 -
23/05:30pm 29.1 - 8.7 28 11.3 - - - - - 1013.1 - -
23/05:00pm 29.7 - 9.3 28 11.5 - - - - - 1012.8 1012.4 -
23/04:30pm 30.0 - 9.0 27 11.8 - - - - - 1012.7 - -
23/04:00pm 30.4 - 8.7 26 12.1 - - - - - 1012.7 1012.3 -
23/03:30pm 30.3 - 8.7 26 12.1 - - - - - 1012.8 - -
23/03:00pm 30.8 - 9.6 27 12.0 - - - - - 1012.9 1012.5 0.0
23/02:30pm 30.0 - 8.4 26 12.0 - - - - - 1013.2 - -
23/02:00pm 30.3 - 8.1 25 12.3 - - - - - 1013.7 1013.2 -
23/01:30pm 29.9 - 8.3 26 12.0 - - - - - 1013.9 - -
23/01:00pm 29.4 - 8.5 27 11.6 - - - - - 1014.6 1014.1 -
23/12:30pm 29.1 - 9.3 29 11.1 - - - - - 1015.0 - -
23/12:00pm 28.9 - 9.1 29 11.0 - - - - - 1015.4 1015.0 -
23/11:30am 28.4 - 10.1 32 10.4 - - - - - 1015.8 - -
23/11:00am 28.0 - 9.8 32 10.2 - - - - - 1016.1 1015.7 -
23/10:30am 27.5 - 11.5 37 9.2 - - - - - 1016.3 - -
23/10:00am 26.0 - 16.0 54 6.2 - - - - - 1016.4 1016.0 -
23/09:30am 23.8 - 16.3 63 4.6 - - - - - 1016.3 - -
23/09:00am 21.9 - 17.1 74 3.0 - - - - - 1015.9 1015.5 0.0
23/08:30am 20.2 - 16.8 81 2.1 - - - - - 1015.7 - -
23/08:00am 18.9 - 16.7 87 1.3 - - - - - 1015.5 1015.1 -
23/07:30am 17.2 - 15.5 90 1.0 - - - - - 1015.2 - -
23/07:00am 17.0 - 15.3 90 1.0 - - - - - 1014.9 1014.4 -
23/06:30am 17.2 - 15.5 90 1.0 - - - - - 1014.5 - -
23/06:00am 17.4 - 15.7 90 1.0 - - - - - 1014.1 1013.6 -
23/05:30am 17.3 - 15.6 90 1.0 - - - - - 1013.9 - -
23/05:00am 17.3 - 15.5 89 1.1 - - - - - 1013.8 1013.3 -
23/04:30am 17.8 - 16.0 89 1.1 - - - - - 1013.7 - -
23/04:00am 18.0 - 16.0 88 1.2 - - - - - 1013.6 1013.1 -
23/03:30am 18.5 - 16.1 86 1.4 - - - - - 1013.4 - -
23/03:00am 19.0 - 16.6 86 1.5 - - - - - 1013.6 1013.1 0.0
23/02:30am 19.3 - 16.5 84 1.7 - - - - - 1013.8 - -
23/02:00am 19.6 - 16.6 83 1.8 - - - - - 1013.9 1013.4 -
23/01:30am 20.0 - 16.6 81 2.1 - - - - - 1013.9 - -
23/01:00am 19.8 - 16.6 82 1.9 - - - - - 1014.0 1013.5 -
23/12:30am 20.6 - 17.0 80 2.2 - - - - - 1013.9 - -
23/12:00am 20.6 - 17.2 81 2.1 - - - - - 1014.0 1013.5 -
 
Date/Time
EST
Temp
°C
App
Temp
°C
Dew
Point
°C
Rel
Hum
%
Delta-T
°C
Wind Press
QNH
hPa
Press
MSL
hPa
Rain since
9am
mm
Dir  Spd
km/h
Gust
km/h
Spd
kts
Gust
kts
22/11:30pm 20.5 - 17.1 81 2.1 - - - - - 1014.3 - -
22/11:00pm 20.8 - 17.4 81 2.1 - - - - - 1014.3 1013.8 -
22/10:30pm 21.4 - 17.8 80 2.2 - - - - - 1014.3 - -
22/10:00pm 21.1 - 17.3 79 2.3 - - - - - 1014.3 1013.8 -
22/09:30pm 22.0 - 17.2 74 3.0 - - - - - 1013.9 - -
22/09:00pm 22.5 - 17.8 75 2.9 - - - - - 1014.0 1013.5 0.0
22/08:30pm 23.0 - 17.5 71 3.4 - - - - - 1013.9 - -
22/08:00pm 24.0 - 17.3 66 4.2 - - - - - 1013.6 1013.1 -

Other Formats:

Comma delimited format used in spreadsheet applications
http://www.bom.gov.au/fwo/IDQ60801/IDQ60801.94335.axf

JavaScript Object Notation format (JSON) in row-major order
http://www.bom.gov.au/fwo/IDQ60801/IDQ60801.94335.json